createdAt,value
2022-12-07T00:01:25.220Z,87.10
2022-12-07T00:03:53.851Z,87.20
2022-12-07T00:06:20.974Z,86.90
2022-12-07T00:08:47.888Z,87.00
2022-12-07T00:11:15.813Z,86.90
2022-12-07T00:13:42.424Z,86.60
2022-12-07T00:16:13.464Z,86.90
2022-12-07T00:18:40.698Z,86.50
2022-12-07T00:21:09.549Z,86.60
2022-12-07T00:23:36.410Z,86.90
2022-12-07T00:26:07.234Z,86.70
2022-12-07T00:28:34.624Z,86.30
2022-12-07T00:31:02.104Z,86.30
2022-12-07T00:33:29.566Z,86.10
2022-12-07T00:35:56.912Z,86.70
2022-12-07T00:38:23.681Z,86.50
2022-12-07T00:41:01.071Z,86.30
2022-12-07T00:43:27.715Z,86.10
2022-12-07T00:45:54.891Z,86.30
2022-12-07T00:48:21.873Z,86.10
2022-12-07T00:50:48.608Z,86.00
2022-12-07T00:53:15.835Z,86.00
2022-12-07T00:55:42.453Z,86.30
2022-12-07T00:58:09.268Z,86.00
2022-12-07T01:00:37.052Z,86.10
2022-12-07T01:03:04.534Z,85.90
2022-12-07T01:05:31.177Z,86.50
2022-12-07T01:07:57.906Z,86.00
2022-12-07T01:10:24.569Z,85.70
2022-12-07T01:12:51.183Z,85.70
2022-12-07T01:15:17.811Z,85.70
2022-12-07T01:17:44.449Z,85.60
2022-12-07T01:20:11.448Z,85.90
2022-12-07T01:22:41.572Z,85.70
2022-12-07T01:25:08.864Z,85.40
2022-12-07T01:27:35.884Z,85.10
2022-12-07T01:30:04.279Z,84.90
2022-12-07T01:32:31.063Z,85.00
2022-12-07T01:34:57.670Z,84.60
2022-12-07T01:37:24.299Z,84.00
2022-12-07T01:39:51.795Z,84.20
2022-12-07T01:42:19.211Z,84.50
2022-12-07T01:45:09.087Z,84.50
2022-12-07T01:47:35.913Z,85.50
2022-12-07T01:50:03.168Z,84.70
2022-12-07T01:52:32.359Z,85.30
2022-12-07T01:55:02.073Z,84.60
2022-12-07T01:57:29.216Z,84.30
2022-12-07T01:59:56.635Z,84.20
2022-12-07T02:02:49.747Z,84.80
2022-12-07T02:05:17.680Z,84.70
2022-12-07T02:07:45.331Z,84.10
2022-12-07T02:10:32.255Z,84.00
2022-12-07T02:13:02.235Z,84.80
2022-12-07T02:15:58.388Z,85.20
2022-12-07T02:18:43.165Z,85.30
2022-12-07T02:21:09.751Z,85.10
2022-12-07T02:23:41.041Z,84.60
2022-12-07T02:26:23.951Z,84.50
2022-12-07T02:29:03.715Z,84.30
2022-12-07T02:31:31.782Z,84.40
2022-12-07T02:34:03.808Z,84.00
2022-12-07T02:36:33.238Z,84.30
2022-12-07T02:39:20.415Z,84.50
2022-12-07T02:41:53.713Z,84.70
2022-12-07T02:44:22.855Z,84.40
2022-12-07T02:46:58.158Z,84.90
2022-12-07T02:49:25.378Z,84.70
2022-12-07T02:51:53.272Z,84.30
2022-12-07T02:54:20.984Z,84.90
2022-12-07T02:56:53.718Z,84.90
2022-12-07T02:59:39.105Z,85.30
2022-12-07T03:02:05.855Z,85.40
2022-12-07T03:04:44.252Z,85.30
2022-12-07T03:07:16.962Z,85.40
2022-12-07T03:09:49.142Z,85.40
2022-12-07T03:12:19.931Z,85.60
2022-12-07T03:14:49.488Z,86.20
2022-12-07T03:17:18.905Z,85.80
2022-12-07T03:19:46.552Z,85.50
2022-12-07T03:22:14.543Z,85.70
2022-12-07T03:24:48.367Z,86.10
2022-12-07T03:27:17.774Z,85.80
2022-12-07T03:29:46.621Z,86.50
2022-12-07T03:32:32.171Z,86.50
2022-12-07T03:35:08.198Z,87.80
2022-12-07T03:37:37.311Z,88.30
2022-12-07T03:40:10.011Z,88.40
2022-12-07T03:42:36.665Z,88.10
2022-12-07T03:45:04.011Z,88.50
2022-12-07T03:47:32.603Z,88.60
2022-12-07T03:50:01.865Z,88.40
2022-12-07T03:52:28.687Z,88.80
2022-12-07T03:54:58.324Z,88.70
2022-12-07T03:57:26.195Z,88.90
2022-12-07T03:59:54.475Z,88.80
2022-12-07T04:02:21.391Z,89.40
2022-12-07T04:04:48.075Z,89.00
2022-12-07T04:07:14.694Z,89.10
2022-12-07T04:09:41.298Z,88.70
2022-12-07T04:12:08.168Z,89.20
2022-12-07T04:14:34.811Z,89.90
2022-12-07T04:17:01.427Z,90.10
2022-12-07T04:19:29.237Z,90.20
2022-12-07T04:21:56.555Z,90.70
2022-12-07T04:24:23.428Z,90.70
2022-12-07T04:26:50.114Z,91.10
2022-12-07T04:29:16.981Z,91.00
2022-12-07T04:31:44.290Z,91.20
2022-12-07T04:34:11.745Z,91.50
2022-12-07T04:36:38.828Z,91.80
2022-12-07T04:39:06.182Z,91.90
2022-12-07T04:41:33.023Z,91.90
2022-12-07T04:44:00.906Z,92.30
2022-12-07T04:46:28.531Z,92.60
2022-12-07T04:48:55.411Z,92.20
2022-12-07T04:51:23.608Z,92.40
2022-12-07T04:53:50.232Z,92.40
2022-12-07T04:56:17.433Z,92.10
2022-12-07T04:58:45.019Z,92.60
2022-12-07T05:01:11.942Z,92.00
2022-12-07T05:03:38.812Z,91.70
2022-12-07T05:06:09.085Z,91.40
2022-12-07T05:08:40.100Z,91.10
2022-12-07T05:11:07.102Z,90.80
2022-12-07T05:13:34.110Z,90.70
2022-12-07T05:16:00.917Z,90.60
2022-12-07T05:18:27.591Z,90.10
2022-12-07T05:20:54.304Z,90.40
2022-12-07T05:23:21.033Z,90.10
2022-12-07T05:25:47.717Z,89.70
2022-12-07T05:28:14.340Z,89.20
2022-12-07T05:30:40.980Z,89.00
2022-12-07T05:33:07.604Z,88.70
2022-12-07T05:35:34.291Z,89.00
2022-12-07T05:38:00.905Z,88.90
2022-12-07T05:40:27.569Z,88.40
2022-12-07T05:42:54.180Z,87.80
2022-12-07T05:45:20.820Z,87.60
2022-12-07T05:47:47.459Z,88.00
2022-12-07T05:50:14.060Z,87.70
2022-12-07T05:52:40.674Z,87.90
2022-12-07T05:55:07.937Z,88.00
2022-12-07T05:57:34.561Z,87.90
2022-12-07T06:00:01.554Z,88.20
2022-12-07T06:02:28.505Z,87.90
2022-12-07T06:04:55.180Z,88.00
2022-12-07T06:07:21.800Z,88.10
2022-12-07T06:09:48.410Z,88.20
2022-12-07T06:12:33.692Z,88.20
2022-12-07T06:15:00.348Z,88.00
2022-12-07T06:17:27.117Z,87.90
2022-12-07T06:19:53.803Z,87.80
2022-12-07T06:22:21.446Z,87.50
2022-12-07T06:24:48.124Z,87.60
2022-12-07T06:27:14.797Z,87.70
2022-12-07T06:29:41.424Z,87.50
2022-12-07T06:32:08.187Z,87.20
2022-12-07T06:34:34.956Z,87.00
2022-12-07T06:37:01.610Z,86.80
2022-12-07T06:39:28.940Z,86.90
2022-12-07T06:41:55.787Z,87.10
2022-12-07T06:44:22.924Z,87.00
2022-12-07T06:46:50.086Z,87.30
2022-12-07T06:49:17.061Z,87.30
2022-12-07T06:51:44.174Z,87.00
2022-12-07T06:54:11.548Z,87.00
2022-12-07T06:56:38.290Z,87.10
2022-12-07T06:59:07.254Z,86.90
2022-12-07T07:01:34.899Z,86.70
2022-12-07T07:04:01.865Z,86.90
2022-12-07T07:06:28.536Z,86.70
2022-12-07T07:08:55.207Z,86.10
2022-12-07T07:11:21.933Z,86.80
2022-12-07T07:13:48.539Z,86.50
2022-12-07T07:16:15.247Z,86.40
2022-12-07T07:18:41.899Z,86.20
2022-12-07T07:21:08.544Z,86.40
2022-12-07T07:23:35.144Z,86.70
2022-12-07T07:26:01.837Z,87.00
2022-12-07T07:28:28.455Z,86.90
2022-12-07T07:30:55.128Z,87.30
2022-12-07T07:33:21.925Z,88.00
2022-12-07T07:35:48.579Z,88.50
2022-12-07T07:38:15.257Z,88.50
2022-12-07T07:40:42.168Z,87.90
2022-12-07T07:43:08.862Z,87.70
2022-12-07T07:45:35.497Z,87.50
2022-12-07T07:48:02.124Z,87.30
2022-12-07T07:50:28.909Z,86.80
2022-12-07T07:52:55.514Z,86.20
2022-12-07T07:55:22.133Z,86.00
2022-12-07T07:57:54.549Z,86.20
2022-12-07T08:00:22.099Z,86.00
2022-12-07T08:02:48.716Z,86.50
2022-12-07T08:05:15.459Z,86.40
2022-12-07T08:07:42.307Z,86.60
2022-12-07T08:10:11.170Z,86.40
2022-12-07T08:12:38.666Z,86.40
2022-12-07T08:15:05.517Z,86.30
2022-12-07T08:17:32.134Z,86.20
2022-12-07T08:19:58.728Z,85.80
2022-12-07T08:22:25.363Z,85.40
2022-12-07T08:24:51.985Z,85.40
2022-12-07T08:27:18.622Z,86.10
2022-12-07T08:29:45.212Z,86.60
2022-12-07T08:32:11.836Z,86.30
2022-12-07T08:34:38.431Z,86.70
2022-12-07T08:37:05.073Z,86.30
2022-12-07T08:39:32.753Z,86.10
2022-12-07T08:41:59.743Z,85.30
2022-12-07T08:44:26.395Z,85.20
2022-12-07T08:46:56.874Z,85.30
2022-12-07T08:49:27.729Z,85.50
2022-12-07T08:51:55.480Z,85.30
2022-12-07T08:54:23.077Z,85.40
2022-12-07T08:56:58.437Z,85.10
2022-12-07T08:59:25.995Z,84.90
2022-12-07T09:01:52.767Z,84.10
2022-12-07T09:04:19.427Z,84.50
2022-12-07T09:06:46.222Z,84.70
2022-12-07T09:09:13.631Z,84.90
2022-12-07T09:11:40.259Z,85.20
2022-12-07T09:14:06.866Z,85.00
2022-12-07T09:16:33.639Z,84.70
2022-12-07T09:19:00.321Z,84.80
2022-12-07T09:21:26.944Z,84.80
2022-12-07T09:23:53.573Z,84.80
2022-12-07T09:26:20.178Z,84.90
2022-12-07T09:28:46.786Z,84.70
2022-12-07T09:31:28.716Z,84.30
2022-12-07T09:33:59.791Z,83.70
2022-12-07T09:36:27.195Z,84.20
2022-12-07T09:38:53.801Z,83.70
2022-12-07T09:41:20.927Z,83.10
2022-12-07T09:43:48.028Z,83.50
2022-12-07T09:46:16.379Z,83.30
2022-12-07T09:48:43.827Z,83.50
2022-12-07T09:51:24.039Z,83.80
2022-12-07T09:53:56.096Z,83.90
2022-12-07T09:56:23.365Z,84.90
2022-12-07T09:58:50.356Z,84.90
2022-12-07T10:01:18.556Z,84.70
2022-12-07T10:03:56.306Z,84.70
2022-12-07T10:06:24.360Z,85.30
2022-12-07T10:08:51.077Z,85.20
2022-12-07T10:11:17.677Z,84.50
2022-12-07T10:13:47.303Z,84.20
2022-12-07T10:16:26.744Z,84.10
2022-12-07T10:18:53.508Z,84.30
2022-12-07T10:21:27.322Z,84.00
2022-12-07T10:24:01.142Z,82.40
2022-12-07T10:26:32.878Z,83.10
2022-12-07T10:29:00.524Z,81.50
2022-12-07T10:31:27.549Z,82.50
2022-12-07T10:34:01.549Z,81.00
2022-12-07T10:36:38.417Z,82.40
2022-12-07T10:39:19.055Z,82.40
2022-12-07T10:41:56.053Z,80.80
2022-12-07T10:44:24.527Z,81.50
2022-12-07T10:46:58.744Z,80.50
2022-12-07T10:49:47.751Z,80.90
2022-12-07T10:52:21.423Z,80.20
2022-12-07T10:54:51.078Z,81.20
2022-12-07T10:57:25.800Z,80.70
2022-12-07T11:04:34.250Z,97.70
2022-12-07T11:07:07.363Z,70.20
2022-12-07T11:10:13.539Z,63.20
2022-12-07T11:13:05.032Z,60.50
2022-12-07T11:16:05.825Z,58.90
2022-12-07T11:18:57.502Z,58.10
2022-12-07T11:22:02.203Z,57.60
2022-12-07T11:24:53.339Z,57.20
2022-12-07T11:27:31.728Z,57.00
2022-12-07T11:30:21.894Z,56.80
2022-12-07T11:33:18.820Z,56.60
2022-12-07T11:36:00.492Z,56.50
2022-12-07T11:38:48.875Z,56.50
2022-12-07T11:41:22.890Z,56.40
2022-12-07T11:44:39.877Z,56.30
2022-12-07T11:47:18.829Z,56.30
2022-12-07T11:49:54.717Z,56.10
2022-12-07T11:52:36.516Z,56.10
2022-12-07T11:55:06.589Z,56.10
2022-12-07T11:57:41.428Z,56.10
2022-12-07T12:00:15.785Z,56.00
2022-12-07T12:02:53.475Z,56.00
2022-12-07T12:05:23.462Z,56.00
2022-12-07T12:11:21.081Z,55.80
2022-12-07T12:14:32.950Z,55.80
2022-12-07T12:17:28.392Z,56.00
2022-12-07T12:20:20.370Z,56.00
2022-12-07T12:23:06.499Z,56.20
2022-12-07T12:25:40.977Z,56.10
2022-12-07T12:28:28.151Z,56.00
2022-12-07T12:31:18.510Z,56.00
2022-12-07T12:33:48.123Z,56.00
2022-12-07T12:36:20.152Z,56.00
2022-12-07T12:38:50.894Z,56.10
2022-12-07T12:41:36.318Z,56.10
2022-12-07T12:44:24.193Z,56.10
2022-12-07T12:46:51.063Z,56.10
2022-12-07T12:49:20.743Z,56.10
2022-12-07T12:51:52.505Z,56.10
2022-12-07T12:54:19.124Z,56.00
2022-12-07T12:57:07.289Z,56.00
2022-12-07T12:59:57.582Z,55.90
2022-12-07T13:02:32.780Z,56.00
2022-12-07T13:05:04.769Z,55.90
2022-12-07T13:07:46.953Z,55.90
2022-12-07T13:10:33.720Z,55.90
2022-12-07T13:13:02.044Z,55.90
2022-12-07T13:15:56.273Z,55.80
2022-12-07T13:18:29.085Z,55.90
2022-12-07T13:20:59.899Z,55.90
2022-12-07T16:58:44.206Z,39.50
2022-12-07T17:01:18.917Z,44.90
2022-12-07T17:03:46.174Z,49.50
2022-12-07T17:06:17.981Z,51.90
2022-12-07T17:08:44.952Z,53.30
2022-12-07T17:11:19.545Z,53.90
2022-12-07T17:14:05.236Z,54.40
2022-12-07T17:16:32.617Z,54.70
2022-12-07T17:18:59.787Z,54.70
2022-12-07T17:21:26.656Z,54.80
2022-12-07T17:23:53.435Z,54.90
2022-12-07T17:26:24.790Z,55.10
2022-12-07T17:28:51.505Z,55.20
2022-12-07T17:31:20.629Z,55.20
2022-12-07T17:33:48.153Z,55.30
2022-12-07T17:36:16.137Z,55.30
2022-12-07T17:38:43.193Z,55.30
2022-12-07T17:41:39.514Z,55.30
2022-12-07T17:44:11.630Z,55.40
2022-12-07T17:46:39.864Z,55.60
2022-12-07T17:49:07.422Z,55.30
2022-12-07T17:51:53.213Z,55.30
2022-12-07T17:54:20.592Z,55.50
2022-12-07T17:56:47.375Z,55.30
2022-12-07T17:59:14.859Z,55.40
2022-12-07T18:01:42.718Z,55.30
2022-12-07T18:04:09.812Z,55.20
2022-12-07T18:06:36.896Z,55.30
2022-12-07T18:09:04.171Z,55.20
2022-12-07T18:11:31.073Z,55.20
2022-12-07T18:13:57.826Z,55.10
2022-12-07T18:16:27.291Z,55.10
2022-12-07T18:18:54.563Z,55.10
2022-12-07T18:21:27.104Z,55.10
2022-12-07T18:23:54.996Z,55.00
2022-12-07T18:26:23.560Z,55.10
2022-12-07T18:28:50.301Z,55.10
2022-12-07T18:31:17.784Z,55.00
2022-12-07T18:33:46.450Z,55.10
2022-12-07T18:36:14.175Z,55.10
2022-12-07T18:38:41.564Z,55.10
2022-12-07T18:41:13.507Z,55.20
2022-12-07T18:43:40.740Z,55.20
2022-12-07T18:46:18.901Z,55.20
2022-12-07T18:48:46.200Z,55.30
2022-12-07T18:51:14.501Z,55.30
2022-12-07T18:53:41.215Z,55.30
2022-12-07T18:56:10.529Z,55.30
2022-12-07T18:58:37.721Z,55.20
2022-12-07T19:01:04.583Z,55.30
2022-12-07T19:03:33.685Z,55.30
2022-12-07T19:06:07.026Z,55.30
2022-12-07T19:08:34.772Z,55.30
2022-12-07T19:11:23.982Z,55.20
2022-12-07T19:13:51.635Z,55.30
2022-12-07T19:16:18.457Z,55.20
2022-12-07T19:18:50.651Z,55.20
2022-12-07T19:21:18.547Z,55.30
2022-12-07T19:23:45.315Z,55.30
2022-12-07T19:26:12.057Z,55.40
2022-12-07T19:28:38.773Z,55.40
2022-12-07T19:31:11.801Z,55.40
2022-12-07T19:33:39.317Z,55.40
2022-12-07T19:36:06.963Z,55.30
2022-12-07T19:38:34.259Z,55.40
2022-12-07T19:41:08.441Z,55.30
2022-12-07T19:43:35.382Z,55.40
2022-12-07T19:46:06.535Z,55.30
2022-12-07T19:48:33.347Z,55.40
2022-12-07T19:51:04.650Z,55.40
2022-12-07T19:53:34.419Z,55.40
2022-12-07T19:56:01.181Z,55.40
2022-12-07T19:58:28.088Z,55.30
2022-12-07T20:00:54.890Z,55.40
2022-12-07T20:03:21.612Z,55.30
2022-12-07T20:05:48.339Z,55.40
2022-12-07T20:08:15.155Z,55.30
2022-12-07T20:10:41.920Z,55.30
2022-12-07T20:13:28.004Z,55.30
2022-12-07T20:16:06.401Z,55.30
2022-12-07T20:18:42.429Z,55.30
2022-12-07T20:21:09.129Z,55.30
2022-12-07T20:23:35.839Z,55.30
2022-12-07T20:26:08.397Z,55.30
2022-12-07T20:28:35.203Z,55.30
2022-12-07T20:31:02.660Z,55.30
2022-12-07T20:33:30.263Z,55.30
2022-12-07T20:36:01.644Z,55.30
2022-12-07T20:38:29.639Z,55.30
2022-12-07T20:41:01.662Z,55.30
2022-12-07T20:43:29.033Z,55.30
2022-12-07T20:45:56.416Z,55.30
2022-12-07T20:48:23.666Z,55.40
2022-12-07T20:50:51.111Z,55.40
2022-12-07T20:53:17.962Z,55.40
2022-12-07T20:55:45.332Z,55.40
2022-12-07T20:58:12.043Z,55.40
2022-12-07T21:00:38.792Z,55.40
2022-12-07T21:03:05.580Z,55.40
2022-12-07T21:05:33.045Z,55.40
2022-12-07T21:07:59.730Z,55.40
2022-12-07T21:10:26.450Z,55.30
2022-12-07T21:12:55.812Z,55.30
2022-12-07T21:15:22.759Z,55.30
2022-12-07T21:17:49.544Z,55.30
2022-12-07T21:20:16.341Z,55.30
2022-12-07T21:22:43.108Z,55.20
2022-12-07T21:25:09.884Z,55.30
2022-12-07T21:27:36.655Z,55.30
2022-12-07T21:30:04.385Z,55.30
2022-12-07T21:32:31.239Z,55.30
2022-12-07T21:34:57.982Z,55.40
2022-12-07T21:37:24.769Z,55.40
2022-12-07T21:39:51.459Z,55.40
2022-12-07T21:42:18.141Z,55.40
2022-12-07T21:44:44.804Z,55.60
2022-12-07T21:47:11.595Z,55.50
2022-12-07T21:49:38.420Z,55.60
2022-12-07T21:52:05.470Z,55.50
2022-12-07T21:54:32.529Z,55.60
2022-12-07T21:56:59.249Z,55.60
2022-12-07T21:59:25.937Z,55.70
2022-12-07T22:01:52.828Z,55.70
2022-12-07T22:04:22.161Z,55.70
2022-12-07T22:06:49.703Z,55.70
2022-12-07T22:09:18.731Z,55.80
2022-12-07T22:11:46.603Z,55.80
2022-12-07T22:14:31.964Z,55.90
2022-12-07T22:16:58.802Z,55.80
2022-12-07T22:19:26.285Z,55.90
2022-12-07T22:21:52.953Z,55.90
2022-12-07T22:24:19.615Z,55.90
2022-12-07T22:26:46.453Z,55.90
2022-12-07T22:29:13.182Z,55.80
2022-12-07T22:31:41.195Z,55.90
2022-12-07T22:34:14.013Z,55.80
2022-12-07T22:36:40.676Z,55.80
2022-12-07T22:39:08.549Z,55.80
2022-12-07T22:41:35.257Z,55.70
2022-12-07T22:44:01.991Z,55.70
2022-12-07T22:46:28.778Z,55.80
2022-12-07T22:48:55.705Z,55.70
2022-12-07T22:51:27.846Z,55.80
2022-12-07T22:53:55.210Z,55.80
2022-12-07T22:56:22.935Z,55.70
2022-12-07T22:58:49.947Z,55.70
2022-12-07T23:01:18.555Z,55.60
2022-12-07T23:03:45.667Z,55.70
2022-12-07T23:06:24.326Z,55.70
2022-12-07T23:08:52.172Z,55.70
2022-12-07T23:11:40.239Z,55.90
2022-12-07T23:14:12.977Z,55.80
2022-12-07T23:16:40.493Z,55.90
2022-12-07T23:19:07.244Z,55.80
2022-12-07T23:21:34.223Z,55.80
2022-12-07T23:24:00.936Z,55.70
2022-12-07T23:26:27.833Z,55.70
2022-12-07T23:28:54.556Z,55.70
2022-12-07T23:31:22.235Z,55.70
2022-12-07T23:33:48.983Z,55.70
2022-12-07T23:36:21.881Z,55.70
2022-12-07T23:38:50.528Z,55.70
2022-12-07T23:41:19.318Z,55.70
2022-12-07T23:43:46.689Z,55.80
2022-12-07T23:46:19.253Z,55.70
2022-12-07T23:48:46.687Z,55.70
2022-12-07T23:51:14.209Z,55.70
2022-12-07T23:53:43.942Z,55.70
2022-12-07T23:56:15.576Z,55.70
2022-12-07T23:58:42.686Z,55.70
